BRU weather

Brussels Airport
Brussels, Brussels-Capital Region, Belgium

Public forecast

Using degrees Celsius for public forecast. Weather courtesy of forecast.io.

Current aviation weather report (METAR) for Brussels Airport

Retrieved 2020/01/29 04:20 UTC (5 minutes ago):

EBBR 290420Z 23010KT CAVOK 03/00 Q1005 NOSIG

Aviation forecast (TAF) for Brussels Airport

Retrieved 2020-01-29 00:27 UTC (4 hours ago):

TAF TAF EBBR 282300Z 2900/3006 24010KT 9999 FEW020 SCT040 TEMPO 2910/2914 27015G25KT PROB30 TEMPO 3005/3006 BKN008